createdAt,value
2018-07-08T00:00:14.177Z,0
2018-07-08T00:01:24.264Z,0
2018-07-08T00:02:34.075Z,0
2018-07-08T00:03:44.151Z,0
2018-07-08T00:04:54.229Z,0
2018-07-08T00:06:04.064Z,0
2018-07-08T00:07:13.862Z,0
2018-07-08T00:08:23.930Z,0
2018-07-08T00:09:33.460Z,0
2018-07-08T00:10:43.546Z,0
2018-07-08T00:11:53.386Z,0
2018-07-08T00:13:03.463Z,0
2018-07-08T00:14:13.533Z,0
2018-07-08T00:15:23.321Z,0
2018-07-08T00:16:33.388Z,0
2018-07-08T00:17:43.505Z,0
2018-07-08T00:18:53.630Z,0
2018-07-08T00:20:03.714Z,0
2018-07-08T00:21:13.502Z,0
2018-07-08T00:22:23.575Z,0
2018-07-08T00:23:33.690Z,0
2018-07-08T00:24:43.761Z,0
2018-07-08T00:25:53.840Z,0
2018-07-08T00:27:03.372Z,0
2018-07-08T00:28:12.620Z,0
2018-07-08T00:29:22.739Z,0
2018-07-08T00:30:32.799Z,0
2018-07-08T00:31:42.583Z,0
2018-07-08T00:32:52.648Z,0
2018-07-08T00:34:02.450Z,0
2018-07-08T00:35:12.585Z,0
2018-07-08T00:36:22.657Z,0
2018-07-08T00:37:32.447Z,0
2018-07-08T00:38:42.523Z,0
2018-07-08T00:39:52.918Z,0
2018-07-08T00:41:02.504Z,0
2018-07-08T00:42:11.770Z,0
2018-07-08T00:43:21.582Z,0
2018-07-08T00:44:31.672Z,0
2018-07-08T00:45:41.482Z,0
2018-07-08T00:46:51.329Z,0
2018-07-08T00:48:00.861Z,0
2018-07-08T00:49:10.657Z,0
2018-07-08T00:50:20.725Z,0
2018-07-08T00:51:29.712Z,0
2018-07-08T00:52:39.824Z,0
2018-07-08T00:53:49.608Z,0
2018-07-08T00:54:59.144Z,0
2018-07-08T00:56:08.683Z,0
2018-07-08T00:57:18.458Z,0
2018-07-08T00:58:28.331Z,0
2018-07-08T00:59:38.137Z,0
2018-07-08T01:00:48.219Z,0
2018-07-08T01:01:58.391Z,0
2018-07-08T01:03:08.218Z,0
2018-07-08T01:04:18.355Z,0
2018-07-08T01:05:28.426Z,0
2018-07-08T01:06:38.254Z,0
2018-07-08T01:07:47.765Z,0
2018-07-08T01:08:58.040Z,0
2018-07-08T01:10:08.155Z,0
2018-07-08T01:11:17.972Z,0
2018-07-08T01:12:27.513Z,0
2018-07-08T01:13:37.296Z,0
2018-07-08T01:14:47.088Z,0
2018-07-08T01:15:56.930Z,0
2018-07-08T01:17:06.442Z,0
2018-07-08T01:18:16.497Z,0
2018-07-08T01:19:26.344Z,0
2018-07-08T01:20:36.149Z,0
2018-07-08T01:21:45.995Z,0
2018-07-08T01:22:55.548Z,0
2018-07-08T01:24:05.644Z,0
2018-07-08T01:25:15.453Z,0
2018-07-08T01:26:25.521Z,0
2018-07-08T01:27:35.102Z,0
2018-07-08T01:28:44.909Z,0
2018-07-08T01:29:54.735Z,0
2018-07-08T01:31:04.816Z,0
2018-07-08T01:32:14.880Z,0
2018-07-08T01:33:24.727Z,0
2018-07-08T01:34:34.869Z,0
2018-07-08T01:35:44.663Z,0
2018-07-08T01:36:54.728Z,0
2018-07-08T01:38:04.306Z,0
2018-07-08T01:39:14.441Z,0
2018-07-08T01:40:24.490Z,0
2018-07-08T01:41:34.289Z,0
2018-07-08T01:42:44.355Z,0
2018-07-08T01:43:54.422Z,0
2018-07-08T01:45:04.269Z,0
2018-07-08T01:46:14.333Z,5
2018-07-08T01:47:24.406Z,5
2018-07-08T01:48:34.202Z,5
2018-07-08T01:49:44.265Z,5
2018-07-08T01:50:53.828Z,5
2018-07-08T01:52:03.621Z,5
2018-07-08T01:53:13.693Z,5
2018-07-08T01:54:23.225Z,5
2018-07-08T01:55:33.284Z,5
2018-07-08T01:56:43.142Z,5
2018-07-08T01:57:53.212Z,5
2018-07-08T01:59:03.013Z,5
2018-07-08T02:00:12.815Z,5
2018-07-08T02:01:22.613Z,5
2018-07-08T02:02:39.842Z,10
2018-07-08T02:03:49.630Z,10
2018-07-08T02:04:59.679Z,10
2018-07-08T02:06:09.481Z,10
2018-07-08T02:07:19.556Z,10
2018-07-08T02:08:29.385Z,10
2018-07-08T02:09:38.646Z,10
2018-07-08T02:10:48.732Z,10
2018-07-08T02:11:58.248Z,10
2018-07-08T02:13:07.503Z,15
2018-07-08T02:14:17.076Z,15
2018-07-08T02:15:26.592Z,15
2018-07-08T02:16:36.685Z,15
2018-07-08T02:17:46.754Z,15
2018-07-08T02:18:56.808Z,20
2018-07-08T02:20:06.677Z,20
2018-07-08T02:21:16.752Z,20
2018-07-08T02:22:26.299Z,20
2018-07-08T02:23:36.390Z,20
2018-07-08T02:24:46.537Z,20
2018-07-08T02:25:56.641Z,20
2018-07-08T02:27:06.435Z,25
2018-07-08T02:28:16.228Z,25
2018-07-08T02:29:25.750Z,25
2018-07-08T02:30:34.767Z,25
2018-07-08T02:31:44.899Z,30
2018-07-08T02:32:54.698Z,30
2018-07-08T02:34:04.539Z,30
2018-07-08T02:35:14.638Z,35
2018-07-08T02:36:24.719Z,35
2018-07-08T02:37:34.863Z,35
2018-07-08T02:38:44.647Z,35
2018-07-08T02:39:54.448Z,35
2018-07-08T02:41:04.519Z,35
2018-07-08T02:42:14.592Z,40
2018-07-08T02:43:24.705Z,40
2018-07-08T02:44:34.768Z,40
2018-07-08T02:45:44.842Z,40
2018-07-08T02:46:54.392Z,45
2018-07-08T02:48:04.228Z,45
2018-07-08T02:49:14.365Z,45
2018-07-08T02:50:24.492Z,45
2018-07-08T02:51:34.285Z,45
2018-07-08T02:52:44.088Z,50
2018-07-08T02:53:54.162Z,50
2018-07-08T02:55:04.296Z,50
2018-07-08T02:56:14.374Z,50
2018-07-08T02:57:24.168Z,55
2018-07-08T02:58:34.235Z,55
2018-07-08T02:59:44.299Z,55
2018-07-08T03:03:45.522Z,60
2018-07-08T03:04:55.318Z,65
2018-07-08T03:06:05.107Z,65
2018-07-08T03:07:15.168Z,65
2018-07-08T03:08:25.247Z,65
2018-07-08T03:09:35.103Z,70
2018-07-08T03:10:44.911Z,70
2018-07-08T03:11:54.503Z,70
2018-07-08T03:13:03.981Z,70
2018-07-08T03:14:13.507Z,70
2018-07-08T03:15:23.634Z,75
2018-07-08T03:16:33.445Z,75
2018-07-08T03:17:43.546Z,75
2018-07-08T03:18:53.631Z,75
2018-07-08T03:20:03.737Z,75
2018-07-08T03:21:13.326Z,75
2018-07-08T03:22:22.862Z,75
2018-07-08T03:23:32.656Z,80
2018-07-08T03:24:42.459Z,80
2018-07-08T03:25:51.999Z,80
2018-07-08T03:27:02.113Z,80
2018-07-08T03:28:11.906Z,85
2018-07-08T03:29:21.703Z,85
2018-07-08T03:30:31.758Z,85
2018-07-08T03:31:41.846Z,85
2018-07-08T03:32:51.965Z,85
2018-07-08T03:34:01.757Z,90
2018-07-08T03:35:11.005Z,90
2018-07-08T03:36:21.078Z,90
2018-07-08T03:37:31.157Z,90
2018-07-08T03:38:41.015Z,95
2018-07-08T03:39:50.534Z,95
2018-07-08T03:40:59.778Z,95
2018-07-08T03:42:09.838Z,95
2018-07-08T03:43:19.902Z,95
2018-07-08T03:44:29.762Z,100
2018-07-08T03:45:39.814Z,100
2018-07-08T03:46:49.599Z,100
2018-07-08T03:47:59.675Z,105
2018-07-08T03:49:09.479Z,105
2018-07-08T03:50:19.607Z,105
2018-07-08T03:51:29.399Z,105
2018-07-08T03:52:38.659Z,105
2018-07-08T03:53:48.460Z,105
2018-07-08T03:54:57.988Z,105
2018-07-08T03:56:07.843Z,105
2018-07-08T03:57:17.354Z,105
2018-07-08T03:58:27.417Z,105
2018-07-08T03:59:37.214Z,105
2018-07-08T04:00:47.280Z,105
2018-07-08T04:01:57.394Z,110
2018-07-08T04:03:06.922Z,110
2018-07-08T04:04:16.726Z,110
2018-07-08T04:05:25.994Z,110
2018-07-08T04:06:35.525Z,115
2018-07-08T04:07:45.363Z,115
2018-07-08T04:08:55.444Z,115
2018-07-08T04:10:05.226Z,115
2018-07-08T04:11:15.282Z,115
2018-07-08T04:12:25.092Z,115
2018-07-08T04:13:35.216Z,115
2018-07-08T04:14:45.290Z,115
2018-07-08T04:15:55.085Z,120
2018-07-08T04:17:04.618Z,115
2018-07-08T04:18:14.142Z,115
2018-07-08T04:19:23.728Z,115
2018-07-08T04:20:33.253Z,120
2018-07-08T04:21:43.065Z,120
2018-07-08T04:22:52.861Z,120
2018-07-08T04:24:02.945Z,120
2018-07-08T04:25:13.079Z,120
2018-07-08T04:26:23.153Z,120
2018-07-08T04:27:33.231Z,120
2018-07-08T04:28:43.018Z,120
2018-07-08T04:29:52.825Z,120
2018-07-08T04:31:02.962Z,120
2018-07-08T04:32:12.779Z,120
2018-07-08T04:33:22.324Z,120
2018-07-08T04:34:31.861Z,115
2018-07-08T04:35:41.662Z,115
2018-07-08T04:36:51.807Z,125
2018-07-08T04:38:01.589Z,125
2018-07-08T04:39:11.138Z,130
2018-07-08T04:40:21.201Z,135
2018-07-08T04:41:30.731Z,135
2018-07-08T04:42:40.853Z,135
2018-07-08T04:43:50.940Z,135
2018-07-08T04:45:01.017Z,135
2018-07-08T04:46:11.081Z,135
2018-07-08T04:47:20.872Z,135
2018-07-08T04:48:30.740Z,135
2018-07-08T04:49:40.813Z,135
2018-07-08T04:50:50.598Z,120
2018-07-08T04:52:00.385Z,125
2018-07-08T04:53:10.456Z,135
2018-07-08T04:54:20.575Z,135
2018-07-08T04:55:30.358Z,140
2018-07-08T04:56:40.422Z,140
2018-07-08T04:57:50.496Z,140
2018-07-08T04:59:00.290Z,140
2018-07-08T05:00:10.401Z,140
2018-07-08T05:01:20.479Z,145
2018-07-08T05:02:30.272Z,140
2018-07-08T05:03:40.329Z,140
2018-07-08T05:04:50.408Z,140
2018-07-08T05:06:00.531Z,145
2018-07-08T05:07:10.055Z,145
2018-07-08T05:08:19.878Z,145
2018-07-08T05:09:29.943Z,140
2018-07-08T05:10:39.213Z,145
2018-07-08T05:11:49.065Z,145
2018-07-08T05:12:58.857Z,150
2018-07-08T05:14:08.386Z,150
2018-07-08T05:15:18.445Z,150
2018-07-08T05:16:28.010Z,150
2018-07-08T05:17:37.871Z,150
2018-07-08T05:18:47.662Z,150
2018-07-08T05:19:57.722Z,150
2018-07-08T05:21:07.243Z,150
2018-07-08T05:22:16.765Z,150
2018-07-08T05:23:26.354Z,150
2018-07-08T05:24:35.347Z,150
2018-07-08T05:25:45.420Z,155
2018-07-08T05:26:55.498Z,155
2018-07-08T05:28:05.303Z,155
2018-07-08T05:29:15.146Z,155
2018-07-08T05:30:24.662Z,155
2018-07-08T05:31:34.187Z,155
2018-07-08T05:32:43.728Z,155
2018-07-08T05:33:52.981Z,155
2018-07-08T05:35:02.825Z,155
2018-07-08T05:36:12.380Z,155
2018-07-08T05:37:22.440Z,155
2018-07-08T05:38:32.512Z,155
2018-07-08T05:39:41.765Z,160
2018-07-08T05:40:51.883Z,160
2018-07-08T05:42:01.410Z,160
2018-07-08T05:43:10.676Z,165
2018-07-08T05:44:20.477Z,160
2018-07-08T05:45:30.532Z,160
2018-07-08T05:46:40.114Z,165
2018-07-08T05:47:50.181Z,160
2018-07-08T05:48:59.709Z,160
2018-07-08T05:50:09.888Z,160
2018-07-08T05:51:19.433Z,160
2018-07-08T05:52:29.554Z,160
2018-07-08T05:53:39.338Z,160
2018-07-08T05:54:49.413Z,165
2018-07-08T05:55:58.948Z,165
2018-07-08T05:57:08.750Z,165
2018-07-08T05:58:18.880Z,165
2018-07-08T05:59:28.935Z,165
2018-07-08T06:00:38.735Z,165
2018-07-08T06:01:48.540Z,165
2018-07-08T06:02:58.625Z,165
2018-07-08T06:04:08.219Z,165
2018-07-08T06:05:17.748Z,165
2018-07-08T06:06:27.827Z,170
2018-07-08T06:07:37.636Z,170
2018-07-08T06:08:47.483Z,170
2018-07-08T06:09:57.325Z,170
2018-07-08T06:11:07.123Z,170
2018-07-08T06:12:16.937Z,170
2018-07-08T06:13:26.998Z,170
2018-07-08T06:14:36.806Z,170
2018-07-08T06:15:46.408Z,175
2018-07-08T06:16:56.633Z,170
2018-07-08T06:18:06.487Z,170
2018-07-08T06:19:16.011Z,170
2018-07-08T06:20:26.077Z,170
2018-07-08T06:21:35.967Z,175
2018-07-08T06:22:45.758Z,175
2018-07-08T06:23:55.835Z,175
2018-07-08T06:25:05.623Z,180
2018-07-08T06:26:15.825Z,175
2018-07-08T06:27:25.698Z,175
2018-07-08T06:28:35.512Z,180
2018-07-08T06:29:45.304Z,175
2018-07-08T06:30:55.374Z,175
2018-07-08T06:32:05.169Z,175
2018-07-08T06:33:15.303Z,180
2018-07-08T06:34:25.125Z,175
2018-07-08T06:35:35.198Z,180
2018-07-08T06:36:44.982Z,175
2018-07-08T06:37:55.235Z,180
2018-07-08T06:39:05.276Z,175
2018-07-08T06:40:15.109Z,175
2018-07-08T06:41:25.192Z,175
2018-07-08T06:42:34.988Z,175
2018-07-08T06:43:44.787Z,175
2018-07-08T06:44:54.936Z,175
2018-07-08T06:46:04.474Z,175
2018-07-08T06:47:13.995Z,175
2018-07-08T06:48:23.510Z,180
2018-07-08T06:49:32.768Z,180
2018-07-08T06:50:42.896Z,180
2018-07-08T06:51:52.755Z,180
2018-07-08T06:53:02.833Z,180
2018-07-08T06:54:12.901Z,180
2018-07-08T06:55:22.974Z,180
2018-07-08T06:56:33.115Z,180
2018-07-08T06:57:43.195Z,180
2018-07-08T06:58:52.731Z,180
2018-07-08T07:00:02.562Z,180
2018-07-08T07:01:12.083Z,180
2018-07-08T07:02:21.929Z,180
2018-07-08T07:03:31.443Z,180
2018-07-08T07:04:40.717Z,185
2018-07-08T07:05:50.239Z,185
2018-07-08T07:07:00.153Z,185
2018-07-08T07:08:09.194Z,185
2018-07-08T07:09:18.996Z,185
2018-07-08T07:10:29.058Z,185
2018-07-08T07:11:38.865Z,185
2018-07-08T07:12:48.931Z,185
2018-07-08T07:13:58.780Z,190
2018-07-08T07:15:08.055Z,190
2018-07-08T07:16:17.848Z,190
2018-07-08T07:17:28.211Z,190
2018-07-08T07:18:38.349Z,190
2018-07-08T07:19:48.201Z,190
2018-07-08T07:20:58.286Z,190
2018-07-08T07:22:07.822Z,190
2018-07-08T07:23:17.348Z,195
2018-07-08T07:24:27.129Z,195
2018-07-08T07:25:37.261Z,195
2018-07-08T07:26:47.085Z,195
2018-07-08T07:27:57.160Z,195
2018-07-08T07:29:06.954Z,195
2018-07-08T07:30:16.755Z,195
2018-07-08T07:31:26.336Z,200
2018-07-08T07:32:36.139Z,200
2018-07-08T07:33:46.219Z,200
2018-07-08T07:34:56.025Z,200
2018-07-08T07:36:05.823Z,200
2018-07-08T07:37:16.100Z,210
2018-07-08T07:38:26.177Z,210
2018-07-08T07:39:36.258Z,205
2018-07-08T07:40:46.349Z,205
2018-07-08T07:41:56.144Z,210
2018-07-08T07:43:06.272Z,210
2018-07-08T07:44:16.353Z,215
2018-07-08T07:45:26.311Z,215
2018-07-08T07:46:36.125Z,215
2018-07-08T07:47:45.925Z,215
2018-07-08T07:48:56.051Z,220
2018-07-08T07:50:05.844Z,225
2018-07-08T07:51:15.810Z,220
2018-07-08T07:52:25.608Z,220
2018-07-08T07:53:35.404Z,220
2018-07-08T07:54:45.516Z,225
2018-07-08T07:55:55.575Z,225
2018-07-08T07:57:05.640Z,230
2018-07-08T07:58:15.451Z,230
2018-07-08T07:59:25.522Z,235
2018-07-08T08:00:35.368Z,235
2018-07-08T08:01:45.162Z,235
2018-07-08T08:02:55.241Z,240
2018-07-08T08:04:04.770Z,240
2018-07-08T08:05:14.591Z,245
2018-07-08T08:06:24.726Z,245
2018-07-08T08:07:34.538Z,240
2018-07-08T08:08:44.892Z,250
2018-07-08T08:09:54.705Z,250
2018-07-08T08:11:04.244Z,250
2018-07-08T08:12:14.361Z,255
2018-07-08T08:13:24.435Z,255
2018-07-08T08:14:33.685Z,260
2018-07-08T08:15:43.490Z,260
2018-07-08T08:16:53.563Z,260
2018-07-08T08:18:03.685Z,265
2018-07-08T08:19:13.756Z,260
2018-07-08T08:20:23.824Z,260
2018-07-08T08:21:33.914Z,260
2018-07-08T08:22:43.697Z,255
2018-07-08T08:23:53.559Z,255
2018-07-08T08:25:03.371Z,255
2018-07-08T08:26:12.628Z,250
2018-07-08T08:27:22.148Z,250
2018-07-08T08:28:32.228Z,235
2018-07-08T08:29:42.366Z,245
2018-07-08T08:30:52.442Z,245
2018-07-08T08:32:02.250Z,240
2018-07-08T08:33:11.771Z,235
2018-07-08T08:34:21.841Z,235
2018-07-08T08:35:30.877Z,235
2018-07-08T08:36:40.406Z,240
2018-07-08T08:37:49.936Z,240
2018-07-08T08:38:59.739Z,240
2018-07-08T08:40:09.547Z,240
2018-07-08T08:41:19.412Z,235
2018-07-08T08:42:28.938Z,235
2018-07-08T08:43:39.009Z,230
2018-07-08T08:44:49.091Z,230
2018-07-08T08:45:59.216Z,230
2018-07-08T08:47:08.667Z,230
2018-07-08T08:48:18.478Z,230
2018-07-08T08:49:28.283Z,230
2018-07-08T08:50:38.081Z,230
2018-07-08T08:51:47.879Z,230
2018-07-08T08:52:58.014Z,225
2018-07-08T08:54:07.275Z,225
2018-07-08T08:55:17.353Z,220
2018-07-08T08:56:27.424Z,220
2018-07-08T08:57:37.535Z,220
2018-07-08T08:58:47.394Z,220
2018-07-08T08:59:57.462Z,220
2018-07-08T09:01:07.282Z,220
2018-07-08T09:02:17.366Z,215
2018-07-08T09:03:27.177Z,215
2018-07-08T09:04:36.766Z,210
2018-07-08T09:05:46.574Z,210
2018-07-08T09:06:56.644Z,210
2018-07-08T09:08:06.467Z,215
2018-07-08T09:09:16.547Z,220
2018-07-08T09:10:26.147Z,220
2018-07-08T09:11:35.946Z,220
2018-07-08T09:12:46.032Z,220
2018-07-08T09:13:55.834Z,225
2018-07-08T09:15:05.912Z,225
2018-07-08T09:16:16.026Z,225
2018-07-08T09:17:26.121Z,225
2018-07-08T09:18:35.938Z,225
2018-07-08T09:19:46.014Z,225
2018-07-08T09:20:55.277Z,225
2018-07-08T09:22:05.156Z,225
2018-07-08T09:23:15.226Z,225
2018-07-08T09:24:25.036Z,230
2018-07-08T09:25:35.122Z,225
2018-07-08T09:26:45.204Z,225
2018-07-08T09:27:55.045Z,230
2018-07-08T09:29:05.118Z,235
2018-07-08T09:30:14.377Z,230
2018-07-08T09:31:24.176Z,230
2018-07-08T09:32:33.445Z,230
2018-07-08T09:33:43.572Z,230
2018-07-08T09:34:53.664Z,230
2018-07-08T09:36:03.754Z,230
2018-07-08T09:37:13.830Z,230
2018-07-08T09:38:23.626Z,230
2018-07-08T09:39:33.794Z,230
2018-07-08T09:40:43.600Z,230
2018-07-08T09:41:53.122Z,235
2018-07-08T09:43:02.937Z,235
2018-07-08T09:44:12.473Z,235
2018-07-08T09:45:22.327Z,235
2018-07-08T09:46:32.114Z,235
2018-07-08T09:47:41.932Z,235
2018-07-08T09:48:51.998Z,235
2018-07-08T09:50:02.073Z,235
2018-07-08T09:51:11.660Z,235
2018-07-08T09:52:21.743Z,240
2018-07-08T09:53:31.540Z,240
2018-07-08T09:54:41.626Z,240
2018-07-08T09:55:51.724Z,240
2018-07-08T09:57:01.862Z,240
2018-07-08T09:58:11.363Z,240
2018-07-08T09:59:21.167Z,240
2018-07-08T10:00:30.412Z,240
2018-07-08T10:01:39.941Z,245
2018-07-08T10:02:49.805Z,250
2018-07-08T10:03:59.875Z,245
2018-07-08T10:05:10.093Z,245
2018-07-08T10:06:19.907Z,245
2018-07-08T10:07:29.997Z,245
2018-07-08T10:08:39.648Z,245
2018-07-08T10:09:49.740Z,245
2018-07-08T10:11:00.148Z,245
2018-07-08T10:12:09.965Z,245
2018-07-08T10:13:20.042Z,245
2018-07-08T10:14:30.162Z,250
2018-07-08T10:15:40.243Z,250
2018-07-08T10:16:50.333Z,250
2018-07-08T10:18:00.944Z,250
2018-07-08T10:19:11.216Z,250
2018-07-08T10:20:21.567Z,255
2018-07-08T10:21:31.247Z,260
2018-07-08T10:22:40.571Z,255
2018-07-08T10:23:50.639Z,255
2018-07-08T10:25:00.716Z,255
2018-07-08T10:26:10.565Z,260
2018-07-08T10:27:20.637Z,260
2018-07-08T10:28:30.753Z,260
2018-07-08T10:29:40.571Z,260
2018-07-08T10:30:50.665Z,260
2018-07-08T10:32:00.798Z,260
2018-07-08T10:33:10.632Z,265
2018-07-08T10:34:20.443Z,265
2018-07-08T10:35:29.703Z,265
2018-07-08T10:36:39.509Z,265
2018-07-08T10:37:49.163Z,270
2018-07-08T10:38:58.975Z,280
2018-07-08T10:40:08.779Z,280
2018-07-08T10:41:18.848Z,285
2018-07-08T10:42:28.921Z,290
2018-07-08T10:43:38.929Z,290
2018-07-08T10:44:48.469Z,300
2018-07-08T10:45:58.020Z,310
2018-07-08T10:47:08.107Z,315
2018-07-08T10:48:18.184Z,320
2018-07-08T10:49:28.029Z,325
2018-07-08T10:50:37.842Z,330
2018-07-08T10:51:47.911Z,335
2018-07-08T10:52:57.726Z,340
2018-07-08T10:54:07.262Z,340
2018-07-08T10:55:17.156Z,340
2018-07-08T10:56:26.999Z,345
2018-07-08T10:57:36.538Z,355
2018-07-08T10:58:46.347Z,370
2018-07-08T10:59:56.437Z,380
2018-07-08T11:01:06.310Z,390
2018-07-08T11:02:16.388Z,400
2018-07-08T11:03:26.228Z,415
2018-07-08T11:04:36.099Z,410
2018-07-08T11:05:46.175Z,400
2018-07-08T11:06:56.322Z,400
2018-07-08T11:08:06.452Z,400
2018-07-08T11:09:15.989Z,400
2018-07-08T11:10:25.797Z,420
2018-07-08T11:11:35.877Z,435
2018-07-08T11:12:46.041Z,460
2018-07-08T11:13:56.120Z,455
2018-07-08T11:15:05.922Z,480
2018-07-08T11:16:16.004Z,500
2018-07-08T11:17:25.830Z,485
2018-07-08T11:18:35.677Z,490
2018-07-08T11:19:45.480Z,485
2018-07-08T11:20:55.200Z,480
2018-07-08T11:22:05.277Z,420
2018-07-08T11:23:14.530Z,410
2018-07-08T11:24:24.390Z,430
2018-07-08T11:25:34.476Z,370
2018-07-08T11:26:44.611Z,375
2018-07-08T11:27:54.152Z,345
2018-07-08T11:29:04.243Z,325
2018-07-08T11:30:13.840Z,325
2018-07-08T11:31:23.916Z,325
2018-07-08T11:32:33.724Z,330
2018-07-08T11:33:43.518Z,320
2018-07-08T11:34:53.329Z,325
2018-07-08T11:36:03.201Z,330
2018-07-08T11:37:12.473Z,350
2018-07-08T11:38:22.288Z,370
2018-07-08T11:39:32.373Z,655
2018-07-08T11:40:42.175Z,2065
2018-07-08T11:41:52.321Z,2645
2018-07-08T11:43:02.202Z,2880
2018-07-08T11:44:11.947Z,2835
2018-07-08T11:45:22.023Z,2825
2018-07-08T11:46:31.571Z,2780
2018-07-08T11:47:41.715Z,3080
2018-07-08T11:48:51.509Z,2905
2018-07-08T11:50:01.647Z,2970
2018-07-08T11:51:10.869Z,2770
2018-07-08T11:52:20.954Z,2955
2018-07-08T11:53:31.099Z,3110
2018-07-08T11:54:40.658Z,3255
2018-07-08T11:55:50.210Z,3130
2018-07-08T11:57:00.298Z,3040
2018-07-08T11:58:10.401Z,3110
2018-07-08T11:59:20.548Z,3070
2018-07-08T12:00:30.385Z,3045
2018-07-08T12:01:40.176Z,2870
2018-07-08T12:02:49.739Z,2925
2018-07-08T12:03:59.824Z,2925
2018-07-08T12:05:09.953Z,3040
2018-07-08T12:06:19.654Z,2775
2018-07-08T12:07:29.476Z,2820
2018-07-08T12:08:39.020Z,3115
2018-07-08T12:09:48.842Z,3055
2018-07-08T12:10:58.426Z,2690
2018-07-08T12:12:08.231Z,2795
2018-07-08T12:13:18.062Z,2855
2018-07-08T12:14:28.312Z,2770
2018-07-08T12:15:37.859Z,2845
2018-07-08T12:16:48.006Z,2715
2018-07-08T12:17:58.103Z,3005
2018-07-08T12:19:07.653Z,3180
2018-07-08T12:20:17.600Z,3245
2018-07-08T12:21:28.150Z,3130
2018-07-08T12:22:38.047Z,2925
2018-07-08T12:23:47.877Z,2835
2018-07-08T12:24:57.694Z,3010
2018-07-08T12:26:07.517Z,3020
2018-07-08T12:27:17.341Z,3085
2018-07-08T12:28:27.480Z,3085
2018-07-08T12:29:37.558Z,3115
2018-07-08T12:30:47.648Z,3015
2018-07-08T12:31:57.197Z,3080
2018-07-08T12:33:07.290Z,3120
2018-07-08T12:34:17.179Z,3000
2018-07-08T12:35:27.276Z,2780
2018-07-08T12:36:37.103Z,2820
2018-07-08T12:37:46.987Z,3130
2018-07-08T12:38:56.521Z,3060
2018-07-08T12:40:05.849Z,2925
2018-07-08T12:41:15.659Z,3015
2018-07-08T12:42:25.754Z,3175
2018-07-08T12:43:35.558Z,3210
2018-07-08T12:44:46.614Z,3260
2018-07-08T12:45:56.520Z,3320
2018-07-08T12:47:05.789Z,3235
2018-07-08T12:48:15.875Z,3085
2018-07-08T12:49:25.961Z,3250
2018-07-08T12:50:35.509Z,3225
2018-07-08T12:51:45.643Z,3205
2018-07-08T12:52:55.747Z,3170
2018-07-08T12:54:05.562Z,3315
2018-07-08T12:55:15.400Z,3205
2018-07-08T12:56:25.221Z,2985
2018-07-08T12:57:35.349Z,3005
2018-07-08T12:58:45.736Z,3105
2018-07-08T12:59:55.290Z,3030
2018-07-08T13:01:05.384Z,850
2018-07-08T13:02:15.458Z,2935
2018-07-08T13:03:25.344Z,2875
2018-07-08T13:04:35.160Z,2850
2018-07-08T13:05:44.974Z,2020
2018-07-08T13:06:55.168Z,1675
2018-07-08T13:08:04.739Z,2500
2018-07-08T13:09:14.609Z,1380
2018-07-08T13:10:24.418Z,1515
2018-07-08T13:11:34.022Z,2215
2018-07-08T13:12:44.182Z,2210
2018-07-08T13:13:54.001Z,2165
2018-07-08T13:15:04.146Z,2190
2018-07-08T13:16:13.960Z,2350
2018-07-08T13:17:23.813Z,2670
2018-07-08T13:18:33.358Z,3250
2018-07-08T13:19:43.436Z,3400
2018-07-08T13:20:53.330Z,3270
2018-07-08T13:22:03.155Z,3925
2018-07-08T13:23:13.255Z,4490
2018-07-08T13:24:23.346Z,3470
2018-07-08T13:25:33.442Z,4080
2018-07-08T13:26:43.571Z,2570
2018-07-08T13:27:53.654Z,3385
2018-07-08T13:29:03.760Z,3885
2018-07-08T13:30:13.859Z,4050
2018-07-08T13:31:23.664Z,2560
2018-07-08T13:32:34.171Z,4035
2018-07-08T13:33:44.154Z,3990
2018-07-08T13:34:53.719Z,4080
2018-07-08T13:36:03.807Z,4260
2018-07-08T13:37:13.890Z,4215
2018-07-08T13:38:23.748Z,4125
2018-07-08T13:39:33.843Z,4435
2018-07-08T13:40:43.937Z,3365
2018-07-08T13:41:54.038Z,2625
2018-07-08T13:43:03.850Z,4385
2018-07-08T13:44:13.733Z,935
2018-07-08T13:45:23.853Z,1320
2018-07-08T13:46:33.947Z,3500
2018-07-08T13:47:44.050Z,4480
2018-07-08T13:48:53.878Z,2110
2018-07-08T13:50:03.748Z,1270
2018-07-08T13:51:13.566Z,1070
2018-07-08T13:52:23.390Z,965
2018-07-08T13:53:33.489Z,1430
2018-07-08T13:54:42.771Z,1340
2018-07-08T13:55:53.016Z,1025
2018-07-08T13:57:02.839Z,1050
2018-07-08T13:58:12.644Z,1010
2018-07-08T13:59:22.464Z,1280
2018-07-08T14:00:32.623Z,1035
2018-07-08T14:01:42.485Z,3325
2018-07-08T14:02:52.568Z,2190
2018-07-08T14:04:02.662Z,1685
2018-07-08T14:05:11.942Z,1325
2018-07-08T14:06:21.761Z,1075
2018-07-08T14:07:31.923Z,965
2018-07-08T14:08:42.015Z,1210
2018-07-08T14:09:52.097Z,920
2018-07-08T14:11:01.889Z,975
2018-07-08T14:12:11.723Z,1055
2018-07-08T14:13:21.597Z,1090
2018-07-08T14:14:31.138Z,1290
2018-07-08T14:15:40.980Z,3780
2018-07-08T14:16:50.786Z,1350
2018-07-08T14:18:00.872Z,2040
2018-07-08T14:19:10.749Z,1925
2018-07-08T14:20:21.872Z,2950
2018-07-08T14:21:32.034Z,3205
2018-07-08T14:22:41.868Z,3585
2018-07-08T14:23:51.957Z,3750
2018-07-08T14:25:02.088Z,3585
2018-07-08T14:26:11.631Z,3485
2018-07-08T14:27:21.731Z,3080
2018-07-08T14:28:31.824Z,1925
2018-07-08T14:29:41.764Z,2330
2018-07-08T14:30:51.896Z,2035
2018-07-08T14:32:01.429Z,1595
2018-07-08T14:33:11.515Z,1465
2018-07-08T14:34:21.622Z,2310
2018-07-08T14:35:31.440Z,2405
2018-07-08T14:36:41.313Z,2180
2018-07-08T14:37:51.123Z,3160
2018-07-08T14:39:00.986Z,3405
2018-07-08T14:40:10.824Z,1470
2018-07-08T14:41:20.931Z,920
2018-07-08T14:42:31.069Z,1085
2018-07-08T14:43:41.150Z,1540
2018-07-08T14:44:51.225Z,1070
2018-07-08T14:46:01.348Z,1720
2018-07-08T14:47:11.167Z,2700
2018-07-08T14:48:21.028Z,1835
2018-07-08T14:49:30.850Z,850
2018-07-08T14:50:40.106Z,910
2018-07-08T14:51:51.184Z,1540
2018-07-08T14:53:01.008Z,3360
2018-07-08T14:54:10.597Z,3265
2018-07-08T14:55:20.482Z,3460
2018-07-08T14:56:30.573Z,3305
2018-07-08T14:57:40.378Z,3225
2018-07-08T14:58:50.191Z,2265
2018-07-08T14:59:59.519Z,1610
2018-07-08T15:01:09.330Z,1180
2018-07-08T15:02:19.152Z,1505
2018-07-08T15:03:28.688Z,3375
2018-07-08T15:04:38.841Z,3425
2018-07-08T15:05:48.721Z,3535
2018-07-08T15:06:58.533Z,3395
2018-07-08T15:08:08.403Z,3440
2018-07-08T15:09:17.956Z,3565
2018-07-08T15:10:27.791Z,3530
2018-07-08T15:11:37.733Z,3385
2018-07-08T15:12:47.569Z,3405
2018-07-08T15:13:57.124Z,2980
2018-07-08T15:15:07.220Z,2945
2018-07-08T15:16:17.937Z,3335
2018-07-08T15:17:27.759Z,3405
2018-07-08T15:18:37.835Z,3320
2018-07-08T15:19:47.922Z,3250
2018-07-08T15:20:58.342Z,3045
2018-07-08T15:22:08.254Z,2785
2018-07-08T15:23:18.400Z,2650
2018-07-08T15:24:28.214Z,2660
2018-07-08T15:25:38.047Z,1935
2018-07-08T15:26:48.153Z,2240
2018-07-08T15:27:57.977Z,1295
2018-07-08T15:29:07.851Z,1330
2018-07-08T15:30:17.414Z,1385
2018-07-08T15:31:26.972Z,1100
2018-07-08T15:32:36.798Z,1270
2018-07-08T15:33:46.353Z,965
2018-07-08T15:34:56.497Z,1230
2018-07-08T15:36:05.809Z,1750
2018-07-08T15:37:15.643Z,1865
2018-07-08T15:38:25.473Z,2190
2018-07-08T15:39:35.573Z,2020
2018-07-08T15:40:45.428Z,1925
2018-07-08T15:41:55.249Z,1965
2018-07-08T15:43:05.365Z,1755
2018-07-08T15:44:15.453Z,1485
2018-07-08T15:45:25.292Z,1495
2018-07-08T15:46:34.886Z,1625
2018-07-08T15:47:44.701Z,1875
2018-07-08T15:48:53.985Z,1810
2018-07-08T15:50:03.627Z,1275
2018-07-08T15:51:13.455Z,1335
2018-07-08T15:52:23.612Z,1295
2018-07-08T15:53:33.435Z,1060
2018-07-08T15:54:42.980Z,940
2018-07-08T15:55:53.082Z,815
2018-07-08T15:57:02.899Z,620
2018-07-08T15:58:12.793Z,620
2018-07-08T15:59:22.333Z,565
2018-07-08T16:00:32.147Z,585
2018-07-08T16:01:41.408Z,605
2018-07-08T16:02:51.479Z,630
2018-07-08T16:04:01.067Z,625
2018-07-08T16:05:10.604Z,570
2018-07-08T16:06:20.782Z,595
2018-07-08T16:07:30.869Z,665
2018-07-08T16:08:40.955Z,655